Time;durP1;ratioP1;P1;durP2;ratioP2;P2;SDS_P1;SDS_P2;PMS_P1;PMS_P2;Temp;Humidity;BMP_temperature;BMP_pressure;BME280_temperature;BME280_humidity;BME280_pressure;Samples;Min_cycle;Max_cycle;Signal;HPM_P1;HPM_P2
2023/03/18 00:02:22;;;;;;;21.80;12.10;;;;;;;-141.97;59.73;47709.38;4973405;28;20983;-88
2023/03/18 00:04:48;;;;;;;19.30;10.93;;;;;;;-141.97;59.10;47738.19;4990360;28;20183;-90
2023/03/18 00:07:14;;;;;;;21.63;11.23;;;;;;;-141.97;58.90;47738.19;4973302;28;20202;-90
2023/03/18 00:09:40;;;;;;;20.83;11.03;;;;;;;-141.97;58.50;47695.91;4973372;28;20331;-87
2023/03/18 00:12:07;;;;;;;20.97;11.07;;;;;;;-141.97;58.15;47653.63;4974482;28;20167;-88
2023/03/18 00:14:35;;;;;;;20.13;10.73;;;;;;;-141.97;58.05;47599.81;4975024;28;20162;-87
2023/03/18 00:17:00;;;;;;;20.93;11.33;;;;;;;-141.97;57.99;47580.59;4974723;28;20458;-88
2023/03/18 00:19:26;;;;;;;20.63;11.53;;;;;;;-141.97;57.83;47755.50;4974860;28;20451;-88
2023/03/18 00:21:51;;;;;;;20.63;11.13;;;;;;;-141.97;57.81;47644.00;4974435;28;20203;-86
2023/03/18 00:24:16;;;;;;;21.40;11.10;;;;;;;-141.97;57.97;47678.63;4972638;28;20195;-89
2023/03/18 00:26:42;;;;;;;20.10;10.90;;;;;;;-141.97;57.76;47613.25;4989389;28;20202;-88
2023/03/18 00:29:08;;;;;;;21.23;11.30;;;;;;;-141.97;57.87;47730.50;4974246;28;20197;-88
2023/03/18 00:31:34;;;;;;;19.27;10.10;;;;;;;-141.97;57.53;47699.75;4974980;28;20212;-88
2023/03/18 00:34:00;;;;;;;20.40;10.60;;;;;;;-141.97;57.66;47572.91;4972903;28;20223;-88
2023/03/18 00:36:25;;;;;;;20.03;11.70;;;;;;;-141.97;58.05;47770.88;4974273;28;20487;-88
2023/03/18 00:38:56;;;;;;;22.03;11.63;;;;;;;-141.97;57.94;47676.69;4988911;28;20179;-88
2023/03/18 00:41:25;;;;;;;20.27;10.90;;;;;;;-141.97;58.04;47745.88;4973299;28;20195;-88
2023/03/18 00:43:52;;;;;;;19.00;10.17;;;;;;;-141.97;58.40;47647.84;4971664;28;20570;-89
2023/03/18 00:46:24;;;;;;;16.80;9.50;;;;;;;-141.97;58.33;47676.69;4971750;28;20821;-88
2023/03/18 00:48:52;;;;;;;20.23;9.23;;;;;;;-141.97;57.85;47603.66;4972001;28;20438;-89
2023/03/18 00:51:19;;;;;;;18.80;9.40;;;;;;;-141.97;58.03;47645.94;4973025;28;20931;-88
2023/03/18 00:53:51;;;;;;;17.40;9.70;;;;;;;-141.97;57.77;47676.69;4972822;28;20414;-88
2023/03/18 00:56:18;;;;;;;20.37;10.43;;;;;;;-141.97;57.32;47549.84;4972773;28;20802;-89
2023/03/18 00:58:45;;;;;;;27.17;9.40;;;;;;;-141.97;56.80;47753.56;4971980;28;20420;-89
2023/03/18 01:01:12;;;;;;;14.73;8.63;;;;;;;-141.97;56.79;47630.56;4976071;28;20494;-86
2023/03/18 01:03:41;;;;;;;15.97;8.40;;;;;;;-141.97;57.00;47676.69;4973204;28;20423;-88
2023/03/18 01:06:08;;;;;;;15.40;8.93;;;;;;;-141.97;57.41;47590.19;4987801;28;20934;-87
2023/03/18 01:08:34;;;;;;;17.47;8.63;;;;;;;-141.97;57.79;47763.19;4972922;28;20403;-89
2023/03/18 01:11:00;;;;;;;15.63;9.13;;;;;;;-141.97;57.55;47638.25;4973612;28;20553;-88
2023/03/18 01:13:25;;;;;;;18.27;9.70;;;;;;;-141.97;58.10;47722.81;4990582;28;20175;-90
2023/03/18 01:15:51;;;;;;;18.30;9.83;;;;;;;-141.97;58.93;47724.75;4979648;28;20175;-89
2023/03/18 01:18:17;;;;;;;20.77;10.67;;;;;;;-141.97;59.02;47584.44;4984382;28;20191;-88
2023/03/18 01:20:43;;;;;;;19.10;10.23;;;;;;;-141.97;59.26;47709.38;4981547;28;20214;-89
2023/03/18 01:23:10;;;;;;;18.53;9.77;;;;;;;-141.97;59.50;47580.59;4974303;28;20403;-89
2023/03/18 01:25:36;;;;;;;19.77;9.90;;;;;;;-141.97;60.89;47665.16;4971040;28;20423;-88
2023/03/18 01:28:02;;;;;;;19.57;9.80;;;;;;;-141.97;61.80;47703.59;4972011;28;20429;-88
2023/03/18 01:30:29;;;;;;;22.83;11.07;;;;;;;-141.97;62.05;47742.03;4971500;28;20774;-89
2023/03/18 01:32:55;;;;;;;17.33;9.60;;;;;;;-141.97;61.50;47570.97;4972221;28;20411;-88
2023/03/18 01:35:20;;;;;;;16.87;9.10;;;;;;;-141.97;61.52;47563.28;4972789;28;20414;-87
2023/03/18 01:37:46;;;;;;;18.17;9.27;;;;;;;-141.97;62.49;47674.78;4972231;28;20282;-88
2023/03/18 01:40:13;;;;;;;16.90;8.87;;;;;;;-141.97;62.70;47688.22;4973242;28;20655;-89
2023/03/18 01:42:39;;;;;;;15.70;8.07;;;;;;;-141.97;64.58;47609.41;4973270;28;20196;-88
2023/03/18 01:45:22;;;;;;;15.73;8.27;;;;;;;-141.97;65.62;47665.16;4971997;28;20855;-90
2023/03/18 01:47:48;;;;;;;16.77;8.07;;;;;;;-141.97;67.55;47628.63;4973004;28;20399;-89
2023/03/18 01:50:18;;;;;;;16.40;8.10;;;;;;;-141.97;67.92;47692.06;4972075;28;20800;-89
2023/03/18 01:52:45;;;;;;;17.40;7.20;;;;;;;-141.97;67.90;47638.25;4971971;28;20954;-88
2023/03/18 01:55:15;;;;;;;16.00;8.10;;;;;;;-141.97;68.44;47592.13;4973743;28;20481;-87
2023/03/18 01:57:43;;;;;;;16.77;8.83;;;;;;;-141.97;68.51;47703.59;4975497;28;20420;-90
2023/03/18 02:00:10;;;;;;;17.37;8.47;;;;;;;-141.97;67.92;47609.41;4975717;28;20426;-88
2023/03/18 02:02:39;;;;;;;17.20;8.30;;;;;;;-141.97;68.70;47586.34;4991013;28;20460;-90
2023/03/18 02:05:08;;;;;;;17.70;8.87;;;;;;;-141.97;68.81;47670.91;4976085;28;20455;-90
2023/03/18 02:07:35;;;;;;;19.07;9.10;;;;;;;-141.97;68.89;47549.84;4975711;28;20404;-90
2023/03/18 02:10:04;;;;;;;17.90;8.57;;;;;;;-141.97;68.21;47688.22;4975994;28;21042;-89
2023/03/18 02:12:34;;;;;;;17.17;9.10;;;;;;;-141.97;68.37;47667.06;4976220;28;20404;-88
2023/03/18 02:15:07;;;;;;;17.63;8.70;;;;;;;-141.97;68.36;47713.22;4975985;28;20885;-88
2023/03/18 02:17:38;;;;;;;18.47;8.53;;;;;;;-141.97;67.74;47684.38;4990828;28;20423;-88
2023/03/18 02:20:26;;;;;;;17.10;8.77;;;;;;;-141.97;67.86;47657.47;4975723;28;20495;-88
2023/03/18 02:23:08;;;;;;;19.07;8.53;;;;;;;-141.97;68.48;47636.31;4974186;28;21049;-89
2023/03/18 02:26:02;;;;;;;16.43;8.13;;;;;;;-141.97;68.34;47680.53;4975265;28;20439;-90
2023/03/18 02:28:30;;;;;;;19.90;9.27;;;;;;;-141.97;68.01;47630.56;4976332;28;20807;-88
2023/03/18 02:31:02;;;;;;;22.80;9.33;;;;;;;-141.97;67.10;47715.13;4990504;28;20476;-89
2023/03/18 02:33:33;;;;;;;16.90;8.70;;;;;;;-141.97;66.63;47626.72;4975889;28;20423;-89
2023/03/18 02:36:05;;;;;;;18.87;9.47;;;;;;;-141.97;65.96;47657.47;4977035;28;20422;-87
2023/03/18 02:38:31;;;;;;;19.93;9.53;;;;;;;-141.97;65.49;47665.16;4976383;28;20514;-89
2023/03/18 02:40:56;;;;;;;18.63;9.40;;;;;;;-141.97;65.04;47609.41;4974797;28;20496;-89
2023/03/18 02:43:22;;;;;;;17.80;8.67;;;;;;;-141.97;63.90;47680.53;4975882;28;20653;-88
2023/03/18 02:45:56;;;;;;;15.37;8.50;;;;;;;-141.97;63.55;47688.22;4976574;28;20218;-90
2023/03/18 02:48:26;;;;;;;17.37;8.70;;;;;;;-141.97;62.79;47595.97;4974844;28;20198;-88
2023/03/18 02:50:53;;;;;;;24.60;9.23;;;;;;;-141.97;63.01;47655.53;4976363;28;20435;-88
2023/03/18 02:53:18;;;;;;;17.47;8.67;;;;;;;-141.97;63.22;47743.97;4978119;28;20414;-89
2023/03/18 02:55:43;;;;;;;15.93;7.90;;;;;;;-141.97;62.46;47619.03;4975627;28;20399;-89
2023/03/18 02:58:09;;;;;;;17.63;8.20;;;;;;;-141.97;62.32;47603.66;4975521;28;20259;-87
2023/03/18 03:00:35;;;;;;;18.87;8.90;;;;;;;-141.97;61.67;47667.06;4975875;28;20163;-89
2023/03/18 03:03:00;;;;;;;16.80;8.47;;;;;;;-141.97;61.66;47669.00;4974818;28;20215;-87
2023/03/18 03:05:26;;;;;;;15.57;8.50;;;;;;;-141.97;61.37;47653.63;4975861;28;20172;-87
2023/03/18 03:07:52;;;;;;;19.40;10.23;;;;;;;-141.97;61.36;47649.78;4973942;28;20171;-87
2023/03/18 03:10:18;;;;;;;16.90;9.10;;;;;;;-141.97;61.57;47574.81;4974874;28;20626;-89
2023/03/18 03:12:44;;;;;;;21.00;9.47;;;;;;;-141.97;61.66;47592.13;4989583;28;20267;-88
2023/03/18 03:15:10;;;;;;;15.57;8.43;;;;;;;-141.97;62.03;47580.59;4989131;28;20246;-89
2023/03/18 03:17:35;;;;;;;24.27;10.80;;;;;;;-141.97;62.42;47572.91;4974095;28;20182;-88
2023/03/18 03:20:04;;;;;;;20.47;10.50;;;;;;;-141.97;63.19;47688.22;4974289;28;20408;-90
2023/03/18 03:22:30;;;;;;;22.57;11.23;;;;;;;-141.97;63.41;47707.44;4974253;28;20286;-90
2023/03/18 03:24:56;;;;;;;21.63;11.17;;;;;;;-141.97;64.63;47784.34;4973520;28;20454;-90
2023/03/18 03:27:21;;;;;;;20.93;11.27;;;;;;;-141.97;65.16;47761.25;4990258;28;20182;-88
2023/03/18 03:29:47;;;;;;;20.80;11.13;;;;;;;-141.97;65.28;47676.69;4974580;28;20239;-89
2023/03/18 03:32:12;;;;;;;21.80;11.67;;;;;;;-141.97;64.99;47763.19;4976973;28;20171;-85
2023/03/18 03:34:38;;;;;;;21.57;10.67;;;;;;;-141.97;65.90;47657.47;4987755;28;20198;-87
2023/03/18 03:37:03;;;;;;;19.90;10.77;;;;;;;-141.97;65.93;47768.94;4973916;28;20526;-89
2023/03/18 03:39:29;;;;;;;19.27;10.70;;;;;;;-141.97;66.41;47553.69;4974515;28;20227;-88
2023/03/18 03:41:54;;;;;;;19.23;10.63;;;;;;;-141.97;66.58;47613.25;4973417;28;20234;-88
2023/03/18 03:44:19;;;;;;;19.63;10.33;;;;;;;-141.97;66.08;47768.94;4973638;28;20702;-91
2023/03/18 03:46:45;;;;;;;21.93;11.10;;;;;;;-141.97;66.10;47682.47;4973445;28;20175;-88
2023/03/18 03:49:11;;;;;;;19.27;10.13;;;;;;;-141.97;66.26;47649.78;4973136;28;20174;-89
2023/03/18 03:51:36;;;;;;;20.90;11.03;;;;;;;-141.97;65.70;47626.72;4973237;28;20169;-89
2023/03/18 03:54:02;;;;;;;20.33;10.47;;;;;;;-141.97;64.93;47730.50;4964512;28;20191;-89
2023/03/18 03:56:27;;;;;;;20.43;10.40;;;;;;;-141.97;65.10;47665.16;4955402;29;20179;-88
2023/03/18 03:58:53;;;;;;;18.70;10.10;;;;;;;-141.97;65.59;47680.53;4955276;28;20181;-88
2023/03/18 04:01:19;;;;;;;21.10;10.80;;;;;;;-141.97;65.38;47661.31;4955223;29;20196;-90
2023/03/18 04:03:44;;;;;;;21.07;11.00;;;;;;;-141.97;65.07;47728.59;4953545;29;20574;-88
2023/03/18 04:06:10;;;;;;;19.23;9.87;;;;;;;-141.97;65.88;47684.38;4953772;29;20190;-86
2023/03/18 04:08:35;;;;;;;20.37;10.73;;;;;;;-141.97;66.81;47730.50;4955125;29;20195;-87
2023/03/18 04:11:02;;;;;;;20.70;10.60;;;;;;;-141.97;67.00;47620.94;4956800;29;20284;-88
2023/03/18 04:13:27;;;;;;;23.17;11.13;;;;;;;-141.97;67.10;47667.06;4955662;29;20161;-88
2023/03/18 04:15:53;;;;;;;20.67;10.67;;;;;;;-141.97;66.63;47717.06;4955328;29;20428;-87
2023/03/18 04:18:19;;;;;;;23.03;10.87;;;;;;;-141.97;66.60;47713.22;4954283;29;20164;-89
2023/03/18 04:20:45;;;;;;;20.27;10.03;;;;;;;-141.97;67.14;47565.22;4954254;28;20185;-89
2023/03/18 04:23:11;;;;;;;21.43;10.13;;;;;;;-141.97;67.17;47672.84;4954322;29;20299;-89
2023/03/18 04:25:36;;;;;;;19.87;10.67;;;;;;;-141.97;67.04;47761.25;4952322;29;20670;-87
2023/03/18 04:28:02;;;;;;;26.73;10.60;;;;;;;-141.97;67.65;47695.91;4953576;29;20447;-88
2023/03/18 04:30:29;;;;;;;25.40;13.73;;;;;;;-141.97;67.72;47680.53;4954103;29;20237;-88
2023/03/18 04:32:54;;;;;;;35.20;20.13;;;;;;;-141.97;67.68;47626.72;4952652;29;20164;-87
2023/03/18 04:35:22;;;;;;;26.93;15.37;;;;;;;-141.97;67.09;47672.84;4953944;29;20485;-89
2023/03/18 04:37:48;;;;;;;24.17;13.33;;;;;;;-141.97;67.44;47630.56;4952554;29;20271;-87
2023/03/18 04:40:14;;;;;;;27.97;14.47;;;;;;;-141.97;67.19;47676.69;4952448;28;20413;-89
2023/03/18 04:42:40;;;;;;;36.13;18.33;;;;;;;-141.97;67.29;47717.06;4952451;29;20452;-89
2023/03/18 04:45:06;;;;;;;31.27;15.60;;;;;;;-141.97;67.15;47753.56;4953924;29;20626;-89
2023/03/18 04:47:33;;;;;;;46.37;23.77;;;;;;;-141.97;67.47;47592.13;4985050;28;20168;-89
2023/03/18 04:49:59;;;;;;;41.97;22.03;;;;;;;-141.97;67.18;47757.41;4984760;28;20897;-90
2023/03/18 04:52:25;;;;;;;36.03;20.17;;;;;;;-141.97;66.63;47757.41;4984684;28;20411;-88
2023/03/18 04:54:51;;;;;;;26.00;13.70;;;;;;;-141.97;67.32;47653.63;4952557;28;20638;-90
2023/03/18 04:57:17;;;;;;;20.97;10.53;;;;;;;-141.97;67.54;47592.13;4952535;29;20251;-89
2023/03/18 04:59:43;;;;;;;19.13;9.87;;;;;;;-141.97;67.58;47657.47;4952785;28;20503;-88
2023/03/18 05:02:09;;;;;;;19.63;9.63;;;;;;;-141.97;67.71;47611.34;4953595;29;20188;-90
2023/03/18 05:04:34;;;;;;;20.37;9.43;;;;;;;-141.97;68.56;47697.84;4953738;29;20562;-91
2023/03/18 05:07:00;;;;;;;21.80;11.17;;;;;;;-141.97;68.25;47742.03;4953371;29;20161;-89
2023/03/18 05:09:26;;;;;;;37.23;15.83;;;;;;;-141.97;67.85;47732.44;4953140;29;20255;-88
2023/03/18 05:11:52;;;;;;;25.87;14.37;;;;;;;-141.97;67.50;47688.22;4953250;29;20169;-87
2023/03/18 05:14:17;;;;;;;40.03;19.63;;;;;;;-141.97;67.45;47772.78;4953205;29;20169;-87
2023/03/18 05:16:42;;;;;;;24.10;12.50;;;;;;;-141.97;67.52;47595.97;4952797;28;20299;-88
2023/03/18 05:19:08;;;;;;;25.37;11.97;;;;;;;-141.97;67.94;47734.34;4953392;29;20176;-89
2023/03/18 05:21:35;;;;;;;21.07;11.00;;;;;;;-141.97;66.71;47690.16;4953193;29;20569;-87
2023/03/18 05:24:01;;;;;;;21.60;10.87;;;;;;;-141.97;67.11;47705.53;4953722;29;20163;-87
2023/03/18 05:26:26;;;;;;;18.97;9.90;;;;;;;-141.97;66.44;47767.03;4953260;29;20462;-88
2023/03/18 05:28:52;;;;;;;18.03;8.57;;;;;;;-141.97;66.45;47669.00;4954599;29;20408;-90
2023/03/18 05:31:18;;;;;;;15.90;8.23;;;;;;;-141.97;66.48;47801.63;4970556;28;20172;-91
2023/03/18 05:33:44;;;;;;;19.20;9.60;;;;;;;-141.97;66.39;47597.88;4972857;28;20169;-90
2023/03/18 05:36:09;;;;;;;19.23;9.40;;;;;;;-141.97;66.39;47695.91;4956333;29;20172;-91
2023/03/18 05:38:35;;;;;;;18.17;10.20;;;;;;;-141.97;66.16;47522.91;4957325;29;20175;-91
2023/03/18 05:41:00;;;;;;;19.77;9.93;;;;;;;-141.97;65.90;47622.88;4956566;29;20183;-91
2023/03/18 05:43:27;;;;;;;19.70;10.17;;;;;;;-141.97;66.08;47767.03;4956304;29;20173;-89
2023/03/18 05:45:53;;;;;;;19.73;9.90;;;;;;;-141.97;65.62;47676.69;4973361;28;20168;-91
2023/03/18 05:48:20;;;;;;;22.87;10.80;;;;;;;-141.97;66.06;47722.81;4972844;28;20448;-91
2023/03/18 05:50:45;;;;;;;23.77;11.40;;;;;;;-141.97;65.38;47592.13;4980210;28;20435;-89
2023/03/18 05:53:11;;;;;;;28.37;14.73;;;;;;;-141.97;65.90;47738.19;4973614;28;20405;-91
2023/03/18 05:55:37;;;;;;;40.97;22.03;;;;;;;-141.97;65.60;47724.75;4956177;29;20172;-92
2023/03/18 05:58:02;;;;;;;29.40;15.77;;;;;;;-141.97;65.67;47565.22;4958019;29;20257;-91
2023/03/18 06:00:29;;;;;;;24.80;12.80;;;;;;;-141.97;66.54;47684.38;4957157;29;20185;-93
2023/03/18 06:02:57;;;;;;;22.43;11.20;;;;;;;-141.97;67.06;47611.34;4966086;29;20199;-91
2023/03/18 06:05:23;;;;;;;17.80;10.33;;;;;;;-141.97;66.11;47611.34;4977069;29;20420;-89
2023/03/18 06:07:49;;;;;;;22.83;12.57;;;;;;;-141.97;65.67;47705.53;4977987;28;20793;-91
2023/03/18 06:10:16;;;;;;;36.23;20.70;;;;;;;-141.97;64.34;47694.00;4973589;28;20567;-91
2023/03/18 06:12:43;;;;;;;55.23;24.03;;;;;;;-141.97;63.96;47599.81;4956990;29;20951;-89
2023/03/18 06:15:09;;;;;;;41.60;18.10;;;;;;;-141.97;63.17;47784.34;4960647;29;20420;-91
2023/03/18 06:17:35;;;;;;;27.00;12.90;;;;;;;-141.97;64.03;47778.56;4966097;29;20409;-90
2023/03/18 06:20:03;;;;;;;33.13;14.43;;;;;;;-141.97;63.24;47799.72;4985062;28;20422;-88
2023/03/18 06:22:30;;;;;;;25.27;11.40;;;;;;;-141.97;63.98;47622.88;4963581;29;20200;-90
2023/03/18 06:24:56;;;;;;;28.20;13.87;;;;;;;-141.97;63.56;47680.53;4961616;29;20924;-91
2023/03/18 06:27:22;;;;;;;21.20;10.43;;;;;;;-141.97;64.61;47720.91;4957747;29;20498;-90
2023/03/18 06:29:47;;;;;;;22.23;12.40;;;;;;;-141.97;64.46;47772.78;4956594;28;20179;-92
2023/03/18 06:32:13;;;;;;;26.30;15.40;;;;;;;-141.97;63.72;47743.97;4955590;29;20272;-92
2023/03/18 06:34:39;;;;;;;24.57;12.47;;;;;;;-141.97;62.83;47709.38;4961008;29;20184;-90
2023/03/18 06:37:05;;;;;;;25.83;13.07;;;;;;;-141.97;61.74;47649.78;4960187;29;20161;-88
2023/03/18 06:39:31;;;;;;;29.40;13.13;;;;;;;-141.97;60.73;47619.03;4957135;28;20431;-90
2023/03/18 06:41:59;;;;;;;21.80;11.43;;;;;;;-141.97;61.13;47695.91;4959537;28;20192;-90
2023/03/18 06:44:25;;;;;;;19.13;9.23;;;;;;;-141.97;61.35;47730.50;4960100;29;20258;-91
2023/03/18 06:46:50;;;;;;;17.30;9.27;;;;;;;-141.97;61.67;47736.28;4955782;29;20506;-89
2023/03/18 06:49:16;;;;;;;24.13;12.80;;;;;;;-141.97;61.79;47657.47;4955281;29;20629;-88
2023/03/18 06:51:42;;;;;;;32.27;17.60;;;;;;;-141.97;61.15;47557.53;4970699;28;20176;-90
2023/03/18 06:54:08;;;;;;;33.97;18.57;;;;;;;-141.97;60.75;47678.63;4955783;29;20177;-89
2023/03/18 06:56:37;;;;;;;30.60;14.67;;;;;;;-141.97;59.88;47765.09;4957320;29;20528;-89
2023/03/18 06:59:04;;;;;;;16.27;8.93;;;;;;;-141.97;59.36;47578.66;4956968;29;20165;-89
2023/03/18 07:01:31;;;;;;;23.83;12.23;;;;;;;-141.97;60.47;47667.06;4958502;28;20482;-89
2023/03/18 07:03:57;;;;;;;27.27;13.80;;;;;;;-141.97;59.06;47617.09;4959435;28;20440;-88
2023/03/18 07:06:23;;;;;;;21.47;12.13;;;;;;;-141.97;59.33;47586.34;4975111;28;20498;-89
2023/03/18 07:08:49;;;;;;;26.80;15.40;;;;;;;-141.97;56.90;47663.22;4978533;28;20471;-89
2023/03/18 07:11:15;;;;;;;26.13;14.67;;;;;;;-141.97;54.60;47515.22;4974754;28;20278;-88
2023/03/18 07:13:41;;;;;;;21.47;10.37;;;;;;;-141.97;52.86;47772.78;4977080;28;20264;-89
2023/03/18 07:16:06;;;;;;;20.40;10.40;;;;;;;-141.97;53.21;47699.75;4974305;28;20447;-91
2023/03/18 07:18:32;;;;;;;19.77;11.30;;;;;;;-141.97;53.14;47695.91;4974136;28;20620;-90
2023/03/18 07:20:57;;;;;;;22.60;12.57;;;;;;;-141.97;53.17;47803.56;4974467;28;20700;-89
2023/03/18 07:23:23;;;;;;;18.40;10.00;;;;;;;-141.97;54.19;47768.94;4975094;28;20168;-88
2023/03/18 07:25:48;;;;;;;18.80;9.97;;;;;;;-141.97;54.24;47590.19;4973783;28;20190;-88
2023/03/18 07:28:14;;;;;;;19.33;9.60;;;;;;;-141.97;55.05;47688.22;4989912;28;20168;-90
2023/03/18 07:30:39;;;;;;;21.57;10.43;;;;;;;-141.97;55.04;47665.16;4973198;28;20625;-89
2023/03/18 07:33:05;;;;;;;15.43;8.07;;;;;;;-141.97;54.77;47694.00;4973924;28;20187;-90
2023/03/18 07:35:31;;;;;;;27.17;13.47;;;;;;;-141.97;54.42;47788.19;4973389;28;20177;-90
2023/03/18 07:37:56;;;;;;;21.60;11.40;;;;;;;-141.97;54.34;47620.94;4973562;28;20172;-88
2023/03/18 07:40:23;;;;;;;18.33;10.20;;;;;;;-141.97;55.29;47584.44;4974490;28;20247;-87
2023/03/18 07:42:50;;;;;;;19.60;10.60;;;;;;;-141.97;55.17;47595.97;4956106;29;20204;-89
2023/03/18 07:45:16;;;;;;;22.13;10.10;;;;;;;-141.97;54.92;47699.75;4954064;28;20506;-90
2023/03/18 07:47:42;;;;;;;21.00;9.97;;;;;;;-141.97;53.66;47574.81;4955529;29;20858;-88
2023/03/18 07:50:08;;;;;;;18.53;10.20;;;;;;;-141.97;54.06;47605.56;4969931;28;20443;-90
2023/03/18 07:52:34;;;;;;;28.20;14.93;;;;;;;-141.97;54.21;47669.00;4954739;29;20161;-90
2023/03/18 07:55:00;;;;;;;20.60;10.33;;;;;;;-141.97;54.71;47774.72;4969569;28;20420;-91
2023/03/18 07:57:26;;;;;;;24.60;11.70;;;;;;;-141.97;54.69;47595.97;4953305;29;20609;-89
2023/03/18 07:59:51;;;;;;;40.83;18.30;;;;;;;-141.97;53.18;47772.78;4953647;29;20420;-88
2023/03/18 08:02:17;;;;;;;46.10;20.43;;;;;;;-141.97;52.66;47790.09;4953420;29;20192;-89
2023/03/18 08:04:42;;;;;;;73.53;29.53;;;;;;;-141.97;51.42;47576.75;4954330;28;20177;-90
2023/03/18 08:07:09;;;;;;;64.07;29.53;;;;;;;-141.97;50.78;47642.09;4954180;29;20191;-91
2023/03/18 08:09:34;;;;;;;148.77;60.53;;;;;;;-141.97;50.52;47630.56;4970003;28;20228;-90
2023/03/18 08:12:00;;;;;;;97.77;39.67;;;;;;;-141.97;49.72;47605.56;4970153;28;20168;-89
2023/03/18 08:14:25;;;;;;;34.93;18.03;;;;;;;-141.97;49.89;47669.00;4953360;29;20260;-90
2023/03/18 08:16:51;;;;;;;28.53;14.00;;;;;;;-141.97;49.80;47649.78;4953020;29;20204;-89
2023/03/18 08:19:16;;;;;;;39.53;18.43;;;;;;;-141.97;49.75;47661.31;4954236;29;20187;-91
2023/03/18 08:21:42;;;;;;;52.67;29.13;;;;;;;-141.97;49.83;47669.00;4954009;28;20276;-89
2023/03/18 08:24:09;;;;;;;29.27;16.30;;;;;;;-141.97;50.41;47601.72;4953969;29;20208;-89
2023/03/18 08:26:35;;;;;;;24.90;13.43;;;;;;;-141.97;49.25;47786.25;4954020;29;20184;-90
2023/03/18 08:29:00;;;;;;;36.63;17.50;;;;;;;-141.97;48.79;47680.53;4954390;28;20175;-89
2023/03/18 08:31:26;;;;;;;42.03;19.27;;;;;;;-141.97;48.74;47628.63;4953674;28;20232;-88
2023/03/18 08:33:54;;;;;;;105.53;39.00;;;;;;;-141.97;49.37;47713.22;4954043;28;20169;-89
2023/03/18 08:36:20;;;;;;;27.70;13.27;;;;;;;-141.97;48.35;47628.63;4955332;29;20165;-90
2023/03/18 08:38:45;;;;;;;19.63;10.47;;;;;;;-141.97;49.07;47578.66;4954427;28;20612;-88
2023/03/18 08:41:11;;;;;;;17.50;9.67;;;;;;;-141.97;49.16;47680.53;4955265;29;20173;-89
2023/03/18 08:43:36;;;;;;;32.20;14.07;;;;;;;-141.97;50.00;47569.06;4955499;29;20220;-89
2023/03/18 08:46:03;;;;;;;47.60;21.97;;;;;;;-141.97;50.31;47780.47;4957823;29;20668;-90
2023/03/18 08:48:29;;;;;;;16.83;9.63;;;;;;;-141.97;50.33;47740.13;4957353;29;20255;-90
2023/03/18 08:50:54;;;;;;;22.50;13.37;;;;;;;-141.97;49.50;47749.72;4959412;29;20157;-88
2023/03/18 08:53:20;;;;;;;29.30;16.17;;;;;;;-141.97;47.98;47726.66;4958934;29;20172;-87
2023/03/18 08:55:46;;;;;;;20.43;11.50;;;;;;;-141.97;46.72;47599.81;4953885;29;20172;-87
2023/03/18 08:58:12;;;;;;;28.13;15.03;;;;;;;-141.97;46.05;47578.66;4955506;29;20185;-89
2023/03/18 09:00:40;;;;;;;45.30;17.97;;;;;;;-141.97;46.51;47678.63;4954751;29;20174;-89
2023/03/18 09:03:07;;;;;;;21.70;11.53;;;;;;;-141.97;45.63;47703.59;4955993;29;20673;-91
2023/03/18 09:05:32;;;;;;;23.03;12.87;;;;;;;-141.97;46.01;47609.41;4956229;28;20240;-89
2023/03/18 09:07:59;;;;;;;23.97;13.93;;;;;;;-141.97;46.38;47590.19;4958048;29;20173;-89
2023/03/18 09:10:25;;;;;;;40.70;22.20;;;;;;;-141.97;46.15;47780.47;4957430;28;20238;-90
2023/03/18 09:12:50;;;;;;;30.10;17.53;;;;;;;-141.97;45.79;47561.38;4959812;29;20243;-89
2023/03/18 09:15:20;;;;;;;27.90;15.77;;;;;;;-141.97;45.96;47607.50;4958551;29;20207;-88
2023/03/18 09:17:47;;;;;;;34.10;20.97;;;;;;;-141.97;46.42;47661.31;4958743;29;20161;-91
2023/03/18 09:20:15;;;;;;;18.90;10.37;;;;;;;-141.97;46.46;47665.16;4956409;29;20169;-89
2023/03/18 09:22:43;;;;;;;15.87;8.87;;;;;;;-141.97;45.80;47720.91;4955871;28;20223;-89
2023/03/18 09:25:09;;;;;;;14.97;8.83;;;;;;;-141.97;45.57;47582.50;4957395;29;20169;-90
2023/03/18 09:27:35;;;;;;;14.40;8.50;;;;;;;-141.97;45.43;47665.16;4957553;29;20256;-89
2023/03/18 09:30:01;;;;;;;19.33;9.63;;;;;;;-141.97;44.16;47676.69;4955916;29;20196;-92
2023/03/18 09:32:26;;;;;;;23.60;12.07;;;;;;;-141.97;44.75;47551.75;4957456;29;20208;-89
2023/03/18 09:34:52;;;;;;;23.60;11.90;;;;;;;-141.97;44.39;47647.84;4957632;28;20179;-90
2023/03/18 09:37:18;;;;;;;19.87;11.60;;;;;;;-141.97;44.28;47726.66;4957310;29;20649;-90
2023/03/18 09:39:46;;;;;;;22.70;10.83;;;;;;;-141.97;43.60;47713.22;4956713;29;20169;-87
2023/03/18 09:42:24;;;;;;;18.43;10.13;;;;;;;-141.97;43.61;47688.22;4956892;29;20307;-87
2023/03/18 09:44:58;;;;;;;18.47;10.10;;;;;;;-141.97;43.91;47547.91;4956971;29;20564;-88
2023/03/18 09:47:48;;;;;;;20.67;10.53;;;;;;;-141.97;43.70;47703.59;4956328;29;20499;-89
2023/03/18 09:50:32;;;;;;;28.63;10.27;;;;;;;-141.97;43.43;47701.69;4955433;29;20276;-89
2023/03/18 09:53:25;;;;;;;18.13;10.00;;;;;;;-141.97;43.00;47613.25;4956970;29;20251;-90
2023/03/18 09:55:59;;;;;;;15.60;9.53;;;;;;;-141.97;43.03;47667.06;4956964;29;20536;-90
2023/03/18 09:58:39;;;;;;;16.47;9.67;;;;;;;-141.97;42.87;47799.72;4971290;28;20613;-89
2023/03/18 10:01:08;;;;;;;16.20;9.97;;;;;;;-141.97;42.78;47572.91;4956191;29;20165;-88
2023/03/18 10:03:39;;;;;;;17.30;10.20;;;;;;;-141.97;43.18;47617.09;4956331;29;20160;-90
2023/03/18 10:06:15;;;;;;;17.57;10.07;;;;;;;-141.97;43.38;47588.28;4956371;29;20177;-88
2023/03/18 10:09:05;;;;;;;17.67;10.10;;;;;;;-141.97;43.75;47672.84;4963636;28;20188;-93
2023/03/18 10:11:32;;;;;;;19.07;10.83;;;;;;;-141.97;43.39;47672.84;4958622;29;20191;-91
2023/03/18 10:14:00;;;;;;;17.93;10.40;;;;;;;-141.97;43.47;47676.69;4956491;28;20184;-88
2023/03/18 10:16:30;;;;;;;17.13;9.37;;;;;;;-141.97;43.09;47603.66;4955478;28;20213;-90
2023/03/18 10:18:56;;;;;;;14.13;9.03;;;;;;;-141.97;43.06;47782.41;4955481;29;20713;-90
2023/03/18 10:21:41;;;;;;;15.60;9.40;;;;;;;-141.97;43.61;47713.22;4988996;28;20237;-92
2023/03/18 10:24:25;;;;;;;19.87;11.07;;;;;;;-141.97;43.67;47692.06;4955706;29;20180;-90
2023/03/18 10:27:23;;;;;;;18.37;10.80;;;;;;;-141.97;44.26;47749.72;4956729;29;20187;-90
2023/03/18 10:30:12;;;;;;;16.57;9.70;;;;;;;-141.97;43.14;47636.31;4956816;29;20558;-90
2023/03/18 10:32:50;;;;;;;15.97;9.37;;;;;;;-141.97;42.28;47632.47;4938501;29;20228;-89
2023/03/18 10:35:18;;;;;;;15.37;9.63;;;;;;;-141.97;42.02;47672.84;4937837;28;20192;-89
2023/03/18 10:38:03;;;;;;;15.87;9.60;;;;;;;-141.97;41.54;47653.63;4953658;29;20216;-90
2023/03/18 10:40:40;;;;;;;11.67;7.47;;;;;;;-141.97;39.50;47617.09;4953995;29;20173;-88
2023/03/18 10:43:18;;;;;;;12.27;7.10;;;;;;;-141.97;40.07;47682.47;4937823;29;20235;-90
2023/03/18 10:45:45;;;;;;;12.50;6.90;;;;;;;-141.97;39.62;47626.72;4953902;29;20164;-87
2023/03/18 10:48:23;;;;;;;13.33;6.77;;;;;;;-141.97;38.46;47588.28;4937195;29;20232;-88
2023/03/18 10:51:08;;;;;;;10.80;6.20;;;;;;;-141.97;38.98;47626.72;4953581;29;20553;-89
2023/03/18 10:53:41;;;;;;;10.27;5.90;;;;;;;-141.97;38.23;47590.19;4952798;29;20180;-88
2023/03/18 10:56:09;;;;;;;9.03;6.03;;;;;;;-141.97;37.54;47678.63;4953532;29;20204;-88
2023/03/18 10:58:37;;;;;;;11.23;7.30;;;;;;;-141.97;37.76;47645.94;4938180;29;20318;-90
2023/03/18 11:01:08;;;;;;;10.80;6.40;;;;;;;-141.97;37.85;47659.38;4953878;29;20172;-89
2023/03/18 11:03:40;;;;;;;10.73;6.97;;;;;;;-141.97;38.57;47649.78;4953819;29;20212;-89
2023/03/18 11:06:15;;;;;;;11.57;6.80;;;;;;;-141.97;38.68;47549.84;4937485;29;20187;-89
2023/03/18 11:08:40;;;;;;;13.83;8.33;;;;;;;-141.97;38.99;47496.00;4937463;28;20198;-90